Oakdale, Minnesota
Current Conditions -  °F | °C
As of 3:11 PM on Friday 31 Oct 2014 (Local Time) from K21D Reporting Station
Clear Clear  
Wind Chill: 32°   Ceiling: Unl
Heat Index: 37°   Visibility: 10mi
Dew Point: 21°   Wind: 7mph
Humidity: 52%   Direction: 330°NNW
Pressure: 30.5"   Gusts: NA
Location:  44.97°N, 92.96°W
Report Text: K21D 312011Z AUTO 33006KT 10SM CLR 03/M06 A3050 RMK AO2
Loading
Personal Weather Stations






























Interactive Weather Map
Tropical Storm Tracking
New forecast layout! Learn more

10-Day Weather Forecast

Advertisements
Track Severe Weather on mobile